Time,TemperatureF,DewpointF,PressureIn,WindDirection,WindDirectionDegrees,WindSpeedMPH,WindSpeedGustMPH,Humidity,HourlyPrecipIn,Conditions,Clouds,dailyrainin,SoftwareType,DateUTC
2013-01-22 00:00:00,41.0,-99.9,-100.00,East,97,3.0,5.0,-999,-99.99,,,0.00,,2013-01-22 08:00:00,
2013-01-22 00:53:00,41.0,-99.9,-100.00,East,97,3.0,5.0,-999,-99.99,,,0.00,,2013-01-22 08:53:00,
2013-01-22 01:00:00,42.0,-99.9,-100.00,ESE,102,3.0,5.0,-999,-99.99,,,-99.99,,2013-01-22 09:00:00,
2013-01-22 01:53:00,42.0,-99.9,-100.00,ESE,102,3.0,5.0,-999,-99.99,,,-99.99,,2013-01-22 09:53:00,
2013-01-22 02:00:00,42.0,-99.9,-100.00,East,91,3.0,5.0,-999,-99.99,,,0.00,,2013-01-22 10:00:00,
2013-01-22 02:53:00,42.0,-99.9,-100.00,East,91,3.0,5.0,-999,-99.99,,,0.00,,2013-01-22 10:53:00,
2013-01-22 03:00:00,41.0,-99.9,-100.00,ENE,72,4.0,5.0,-999,-99.99,,,0.00,,2013-01-22 11:00:00,
2013-01-22 03:54:00,41.0,-99.9,-100.00,ENE,72,4.0,5.0,-999,-99.99,,,0.00,,2013-01-22 11:54:00,
2013-01-22 04:00:00,43.0,-99.9,-100.00,ENE,62,4.0,6.0,-999,-99.99,,,0.00,,2013-01-22 12:00:00,
2013-01-22 04:53:00,43.0,-99.9,-100.00,ENE,62,4.0,6.0,-999,-99.99,,,0.00,,2013-01-22 12:53:00,
2013-01-22 06:00:00,43.0,-99.9,-100.00,ESE,111,3.0,4.0,-999,-99.99,,,0.00,,2013-01-22 14:00:00,
2013-01-22 06:54:00,43.0,-99.9,-100.00,ESE,111,3.0,4.0,-999,-99.99,,,0.00,,2013-01-22 14:54:00,
2013-01-22 08:00:00,43.0,-99.9,-100.00,East,87,3.0,4.0,-999,-99.99,,,0.00,,2013-01-22 16:00:00,
2013-01-22 08:54:00,43.0,-99.9,-100.00,East,87,3.0,4.0,-999,-99.99,,,0.00,,2013-01-22 16:54:00,
2013-01-22 09:00:00,44.0,-99.9,-100.00,East,88,2.0,3.0,-999,-99.99,,,-99.99,,2013-01-22 17:00:00,
2013-01-22 09:54:00,44.0,-99.9,-100.00,East,88,2.0,3.0,-999,-99.99,,,-99.99,,2013-01-22 17:54:00,
2013-01-22 10:00:00,46.0,-99.9,-100.00,East,88,2.0,3.0,-999,-99.99,,,0.00,,2013-01-22 18:00:00,
2013-01-22 10:54:00,46.0,-99.9,-100.00,East,88,2.0,3.0,-999,-99.99,,,0.00,,2013-01-22 18:54:00,
2013-01-22 11:00:00,45.0,-99.9,-100.00,ESE,109,1.0,3.0,-999,-99.99,,,0.00,,2013-01-22 19:00:00,
2013-01-22 11:54:00,45.0,-99.9,-100.00,ESE,109,1.0,3.0,-999,-99.99,,,0.00,,2013-01-22 19:54:00,
2013-01-22 12:00:00,45.0,-99.9,-100.00,East,99,2.0,3.0,-999,-99.99,,,0.00,,2013-01-22 20:00:00,
2013-01-22 12:54:00,45.0,-99.9,-100.00,East,99,2.0,3.0,-999,-99.99,,,0.00,,2013-01-22 20:54:00,
2013-01-22 13:00:00,45.0,-99.9,-100.00,East,88,2.0,4.0,-999,-99.99,,,0.00,,2013-01-22 21:00:00,
2013-01-22 13:53:00,45.0,-99.9,-100.00,East,88,2.0,4.0,-999,-99.99,,,0.00,,2013-01-22 21:53:00,
2013-01-22 14:00:00,45.0,-99.9,-100.00,East,86,2.0,4.0,-999,-99.99,,,0.00,,2013-01-22 22:00:00,
2013-01-22 14:53:00,45.0,-99.9,-100.00,East,86,2.0,4.0,-999,-99.99,,,0.00,,2013-01-22 22:53:00,
2013-01-22 15:00:00,46.0,-99.9,-100.00,East,92,2.0,3.0,-999,-99.99,,,0.00,,2013-01-22 23:00:00,
2013-01-22 15:53:00,46.0,-99.9,-100.00,East,92,2.0,3.0,-999,-99.99,,,0.00,,2013-01-22 23:53:00,
2013-01-22 16:00:00,44.0,-99.9,-100.00,East,100,3.0,5.0,-999,-99.99,,,0.00,,2013-01-23 00:00:00,
2013-01-22 16:53:00,44.0,-99.9,-100.00,East,100,3.0,5.0,-999,-99.99,,,0.00,,2013-01-23 00:53:00,
2013-01-22 17:00:00,43.0,-99.9,-100.00,SE,126,3.0,5.0,-999,-99.99,,,0.00,,2013-01-23 01:00:00,
2013-01-22 17:53:00,43.0,-99.9,-100.00,SE,126,3.0,5.0,-999,-99.99,,,0.00,,2013-01-23 01:53:00,
2013-01-22 18:00:00,43.0,-99.9,-100.00,North,-999,-999.0,-999.0,-999,-99.99,,,0.00,,2013-01-23 02:00:00,
2013-01-22 18:54:00,43.0,-99.9,-100.00,North,-999,-999.0,-999.0,-999,-99.99,,,0.00,,2013-01-23 02:54:00,
2013-01-22 19:00:00,43.0,-99.9,-100.00,SSE,148,3.0,4.0,-999,-99.99,,,0.00,,2013-01-23 03:00:00,
2013-01-22 19:53:00,43.0,-99.9,-100.00,SSE,148,3.0,4.0,-999,-99.99,,,0.00,,2013-01-23 03:53:00,
2013-01-22 20:00:00,43.0,-99.9,-100.00,East,90,3.0,5.0,-999,-99.99,,,0.00,,2013-01-23 04:00:00,
2013-01-22 20:53:00,43.0,-99.9,-100.00,East,90,3.0,5.0,-999,-99.99,,,0.00,,2013-01-23 04:53:00,
2013-01-22 21:00:00,43.0,-99.9,-100.00,NE,41,2.0,5.0,-999,-99.99,,,0.00,,2013-01-23 05:00:00,
2013-01-22 21:53:00,43.0,-99.9,-100.00,NE,41,2.0,5.0,-999,-99.99,,,0.00,,2013-01-23 05:53:00,
2013-01-22 22:00:00,43.0,-99.9,-100.00,East,98,2.0,5.0,-999,-99.99,,,0.00,,2013-01-23 06:00:00,
2013-01-22 22:53:00,43.0,-99.9,-100.00,East,98,2.0,5.0,-999,-99.99,,,0.00,,2013-01-23 06:53:00,
2013-01-22 23:00:00,43.0,-99.9,-100.00,East,92,3.0,5.0,-999,-99.99,,,-99.99,,2013-01-23 07:00:00,
2013-01-22 23:53:00,43.0,-99.9,-100.00,East,92,3.0,5.0,-999,-99.99,,,-99.99,,2013-01-23 07:53:00,